Time;durP1;ratioP1;P1;durP2;ratioP2;P2;SDS_P1;SDS_P2;PMS_P1;PMS_P2;Temp;Humidity;BMP_temperature;BMP_pressure;BME280_temperature;BME280_humidity;BME280_pressure;Samples;Min_cycle;Max_cycle;Signal;HPM_P1;HPM_P2
2021/12/11 00:01:40;;;;;;;28.40;13.15;;;-1.80;99.90;;;;;;4968270;28;20240;-86
2021/12/11 00:04:09;;;;;;;27.25;13.05;;;-1.90;99.90;;;;;;4981929;28;20065;-87
2021/12/11 00:06:43;;;;;;;26.17;13.80;;;-1.80;99.90;;;;;;4962559;28;20053;-87
2021/12/11 00:09:21;;;;;;;23.58;12.07;;;-1.90;99.90;;;;;;4986027;28;20042;-86
2021/12/11 00:11:55;;;;;;;22.38;11.90;;;-1.70;99.90;;;;;;4976735;28;20105;-86
2021/12/11 00:14:23;;;;;;;28.92;13.05;;;-1.90;99.90;;;;;;5002568;28;20110;-86
2021/12/11 00:16:50;;;;;;;24.98;12.48;;;-1.90;99.90;;;;;;4982107;28;20082;-86
2021/12/11 00:19:22;;;;;;;29.17;13.20;;;-1.90;99.90;;;;;;4967678;28;20042;-86
2021/12/11 00:22:04;;;;;;;29.45;13.02;;;-1.90;99.90;;;;;;4980191;28;20049;-86
2021/12/11 00:24:33;;;;;;;25.80;12.95;;;-1.90;99.90;;;;;;4970540;28;20046;-85
2021/12/11 00:27:08;;;;;;;24.67;12.45;;;-1.90;99.90;;;;;;4964739;28;20377;-85
2021/12/11 00:29:36;;;;;;;23.42;12.63;;;-1.80;99.90;;;;;;4964854;28;20053;-86
2021/12/11 00:32:12;;;;;;;29.70;13.82;;;-1.90;99.90;;;;;;4964397;28;20042;-86
2021/12/11 00:34:43;;;;;;;26.73;14.55;;;-1.90;99.90;;;;;;4967843;28;20137;-86
2021/12/11 00:37:11;;;;;;;26.77;14.65;;;-1.90;99.90;;;;;;4988190;28;20050;-87
2021/12/11 00:40:10;;;;;;;29.13;14.25;;;-1.90;99.90;;;;;;4978507;28;20047;-86
2021/12/11 00:42:36;;;;;;;24.75;13.73;;;-1.90;99.90;;;;;;4969020;28;20197;-86
2021/12/11 00:45:12;;;;;;;30.13;15.20;;;-1.90;99.90;;;;;;4980811;28;20038;-86
2021/12/11 00:47:44;;;;;;;26.90;13.85;;;-1.90;99.90;;;;;;4983645;28;20514;-86
2021/12/11 00:50:12;;;;;;;27.23;14.07;;;-2.00;99.90;;;;;;4966544;28;20105;-86
2021/12/11 00:52:45;;;;;;;28.13;14.23;;;-1.90;99.90;;;;;;4979919;28;20400;-85
2021/12/11 00:55:33;;;;;;;28.90;14.15;;;-2.00;99.90;;;;;;4964144;28;20053;-86
2021/12/11 00:58:10;;;;;;;36.33;15.70;;;-2.00;99.90;;;;;;4965513;28;20053;-86
2021/12/11 01:00:49;;;;;;;34.58;16.15;;;-2.00;99.90;;;;;;4978286;28;20092;-87
2021/12/11 01:03:18;;;;;;;31.90;16.42;;;-2.00;99.90;;;;;;5004515;28;20056;-86
2021/12/11 01:05:48;;;;;;;38.28;17.38;;;-2.00;99.90;;;;;;4988629;28;20042;-86
2021/12/11 01:08:24;;;;;;;40.72;19.40;;;-2.10;99.90;;;;;;4990210;28;20054;-86
2021/12/11 01:10:56;;;;;;;44.03;19.88;;;-2.10;99.90;;;;;;4989914;28;20044;-86
2021/12/11 01:13:25;;;;;;;46.50;21.08;;;-2.10;99.90;;;;;;4986366;28;20857;-86
2021/12/11 01:15:58;;;;;;;43.53;20.98;;;-2.10;99.90;;;;;;5002083;28;20515;-86
2021/12/11 01:18:37;;;;;;;44.05;21.52;;;-2.10;99.90;;;;;;4990187;28;20045;-86
2021/12/11 01:21:59;;;;;;;49.13;22.25;;;-2.40;99.90;;;;;;4989957;28;20073;-86
2021/12/11 01:24:16;;;;;;;45.60;21.50;;;-2.10;99.90;;;;;;4991315;28;20057;-86
2021/12/11 01:26:49;;;;;;;49.42;22.48;;;-2.20;99.90;;;;;;4990208;28;20133;-87
2021/12/11 01:29:17;;;;;;;48.17;21.45;;;-2.10;99.90;;;;;;4986998;28;20070;-86
2021/12/11 01:31:45;;;;;;;50.08;22.95;;;-2.20;99.90;;;;;;4986857;28;21697;-86
2021/12/11 01:34:11;;;;;;;48.20;21.13;;;-0.90;99.90;;;;;;4988890;28;20479;-87
2021/12/11 01:36:38;;;;;;;46.95;22.40;;;-2.20;99.90;;;;;;4990772;28;20042;-87
2021/12/11 01:39:10;;;;;;;46.95;21.48;;;-2.20;99.90;;;;;;4990787;28;20052;-87
2021/12/11 01:41:37;;;;;;;46.83;22.27;;;-2.20;99.90;;;;;;4989693;28;20033;-86
2021/12/11 01:44:09;;;;;;;44.55;21.65;;;-2.20;99.90;;;;;;4990876;28;20041;-86
2021/12/11 01:46:35;;;;;;;42.67;21.30;;;-2.20;99.90;;;;;;4987010;28;20045;-86
2021/12/11 01:49:04;;;;;;;40.95;20.75;;;-2.30;99.90;;;;;;4989257;28;20025;-87
2021/12/11 01:51:36;;;;;;;43.97;20.05;;;-2.30;99.90;;;;;;4987760;28;20033;-86
2021/12/11 01:54:04;;;;;;;;;;;-2.30;99.90;;;;;;4979849;28;20054;-86
2021/12/11 01:56:32;;;;;;;38.50;17.90;;;-2.30;99.90;;;;;;4989949;28;19960;-86
2021/12/11 01:59:05;;;;;;;38.85;17.45;;;-2.30;99.90;;;;;;4989253;28;20049;-86
2021/12/11 02:01:39;;;;;;;35.95;17.38;;;-2.30;99.90;;;;;;4987276;28;20045;-86
2021/12/11 02:04:07;;;;;;;36.97;16.88;;;-2.30;99.90;;;;;;4998731;28;20494;-86
2021/12/11 02:06:38;;;;;;;33.97;16.13;;;-2.30;99.90;;;;;;4987311;28;20053;-86
2021/12/11 02:09:27;;;;;;;30.55;15.70;;;-2.40;99.90;;;;;;4982089;28;20065;-87
2021/12/11 02:12:11;;;;;;;34.90;15.18;;;-2.30;99.90;;;;;;5001376;28;20065;-87
2021/12/11 02:14:44;;;;;;;30.55;14.85;;;-2.20;99.90;;;;;;4999137;28;20042;-87
2021/12/11 02:17:16;;;;;;;32.25;16.23;;;-2.40;99.90;;;;;;4989498;28;20038;-86
2021/12/11 02:19:43;;;;;;;;;;;-2.40;99.90;;;;;;4985466;28;20053;-86
2021/12/11 02:22:13;;;;;;;29.10;15.00;;;-3.50;99.90;;;;;;4979694;28;20049;-86
2021/12/11 02:24:49;;;;;;;33.20;15.68;;;-2.50;99.90;;;;;;5003724;28;20141;-86
2021/12/11 02:27:26;;;;;;;31.55;15.63;;;-2.40;99.90;;;;;;5002872;28;20523;-86
2021/12/11 02:30:07;;;;;;;29.65;14.32;;;-2.40;99.90;;;;;;4994366;28;20038;-87
2021/12/11 02:32:45;;;;;;;28.98;14.65;;;-2.40;99.90;;;;;;4997184;28;20598;-86
2021/12/11 02:35:26;;;;;;;28.83;14.70;;;-2.50;99.90;;;;;;4985340;28;20048;-87
2021/12/11 02:37:58;;;;;;;22.83;12.18;;;-2.40;99.90;;;;;;4984575;28;20899;-86
2021/12/11 02:40:26;;;;;;;25.88;13.25;;;-2.50;99.90;;;;;;4985226;28;20049;-86
2021/12/11 02:43:08;;;;;;;29.33;14.50;;;-2.40;99.90;;;;;;4982302;28;20243;-86
2021/12/11 02:45:49;;;;;;;28.38;13.57;;;-2.40;99.90;;;;;;5002055;28;20398;-86
2021/12/11 02:48:32;;;;;;;29.13;14.45;;;-2.40;99.90;;;;;;5005642;28;20080;-86
2021/12/11 02:50:58;;;;;;;30.88;13.70;;;-2.50;99.90;;;;;;4984955;28;20045;-87
2021/12/11 02:53:29;;;;;;;31.90;15.15;;;-2.50;99.90;;;;;;4984269;28;20114;-86
2021/12/11 02:56:04;;;;;;;28.23;14.57;;;-2.50;99.90;;;;;;5003809;28;20053;-86
2021/12/11 02:58:36;;;;;;;38.90;17.20;;;-2.50;99.90;;;;;;5009275;28;20072;-86
2021/12/11 03:01:08;;;;;;;;;;;-2.50;99.90;;;;;;4981695;28;20092;-86
2021/12/11 03:03:41;;;;;;;30.17;15.50;;;-2.40;99.90;;;;;;4974638;28;19922;-86
2021/12/11 03:06:22;;;;;;;34.33;17.77;;;-2.40;99.90;;;;;;4983471;28;20046;-86
2021/12/11 03:08:50;;;;;;;33.40;16.37;;;-2.40;99.90;;;;;;4999789;28;20479;-86
2021/12/11 03:11:18;;;;;;;35.53;17.15;;;-2.40;99.90;;;;;;5000570;28;20343;-87
2021/12/11 03:13:52;;;;;;;34.28;16.67;;;-2.40;99.90;;;;;;4998600;28;20045;-87
2021/12/11 03:16:24;;;;;;;35.55;17.27;;;-2.40;99.90;;;;;;5001376;28;20045;-86
2021/12/11 03:18:52;;;;;;;34.63;17.13;;;-2.50;99.90;;;;;;5004648;28;20126;-86
2021/12/11 03:21:18;;;;;;;34.38;15.38;;;-2.50;99.90;;;;;;4991510;28;20049;-87
2021/12/11 03:23:44;;;;;;;28.73;15.57;;;-2.50;99.90;;;;;;5005220;28;20038;-86
2021/12/11 03:26:10;;;;;;;31.52;15.10;;;-2.50;99.90;;;;;;4988841;28;20492;-86
2021/12/11 03:28:37;;;;;;;34.22;16.08;;;-2.50;99.90;;;;;;4988412;28;20045;-87
2021/12/11 03:31:05;;;;;;;31.80;16.00;;;-2.50;99.90;;;;;;4987900;28;20085;-87
2021/12/11 03:33:39;;;;;;;34.88;15.98;;;-2.50;99.90;;;;;;4981719;28;20046;-87
2021/12/11 03:36:09;;;;;;;26.90;14.30;;;-2.50;99.90;;;;;;4985813;28;20046;-86
2021/12/11 03:38:35;;;;;;;33.05;16.23;;;-2.60;99.90;;;;;;4985816;28;20076;-87
2021/12/11 03:41:02;;;;;;;28.48;15.55;;;-2.60;99.90;;;;;;4983960;28;20046;-86
2021/12/11 03:43:29;;;;;;;33.53;15.50;;;-2.60;99.90;;;;;;4986972;28;20050;-86
2021/12/11 03:45:57;;;;;;;26.27;14.60;;;-2.60;99.90;;;;;;4982287;28;20500;-87
2021/12/11 03:48:53;;;;;;;29.33;15.52;;;-2.60;99.90;;;;;;4983495;28;20422;-86
2021/12/11 03:51:24;;;;;;;34.97;15.07;;;-2.60;99.90;;;;;;4983521;28;20938;-87
2021/12/11 03:53:51;;;;;;;33.47;16.35;;;-2.60;99.90;;;;;;4988387;28;20132;-86
2021/12/11 03:56:18;;;;;;;35.10;15.95;;;-2.60;99.90;;;;;;5002832;28;20393;-86
2021/12/11 03:58:50;;;;;;;32.30;15.98;;;-2.70;99.90;;;;;;4991288;28;20049;-87
2021/12/11 04:01:22;;;;;;;37.63;17.42;;;-2.70;99.90;;;;;;4998077;28;20077;-86
2021/12/11 04:03:51;;;;;;;33.08;16.05;;;-2.60;99.90;;;;;;4980707;28;20118;-86
2021/12/11 04:06:18;;;;;;;33.67;17.17;;;-2.70;99.90;;;;;;4986560;28;20097;-86
2021/12/11 04:08:45;;;;;;;40.50;17.58;;;-2.80;99.90;;;;;;4985710;28;20046;-86
2021/12/11 04:11:18;;;;;;;38.15;17.33;;;-2.60;99.90;;;;;;5004757;28;20042;-88
2021/12/11 04:13:48;;;;;;;38.20;17.27;;;-2.70;99.90;;;;;;4983532;28;20040;-87
2021/12/11 04:16:15;;;;;;;34.60;17.45;;;-2.50;99.90;;;;;;4984303;28;20046;-87
2021/12/11 04:18:41;;;;;;;38.13;16.77;;;-2.50;99.90;;;;;;5001690;28;20129;-87
2021/12/11 04:21:08;;;;;;;35.65;18.48;;;-2.50;99.90;;;;;;4985169;28;20050;-86
2021/12/11 04:23:34;;;;;;;33.00;16.98;;;-2.50;99.90;;;;;;4984090;28;20048;-86
2021/12/11 04:26:01;;;;;;;41.92;18.83;;;-2.50;99.90;;;;;;4987152;28;20037;-86
2021/12/11 04:28:31;;;;;;;34.90;16.85;;;-1.60;99.90;;;;;;4998907;28;20049;-86
2021/12/11 04:31:04;;;;;;;32.40;16.13;;;-2.50;99.90;;;;;;5006279;28;20856;-86
2021/12/11 04:33:37;;;;;;;34.95;17.90;;;-2.50;99.90;;;;;;5004414;28;20054;-86
2021/12/11 04:36:03;;;;;;;36.78;17.17;;;-2.50;99.90;;;;;;4996586;28;20050;-86
2021/12/11 04:38:29;;;;;;;39.08;16.42;;;-2.50;99.90;;;;;;4989235;28;20380;-86
2021/12/11 04:40:57;;;;;;;33.58;15.95;;;-2.50;99.90;;;;;;4982278;28;20188;-85
2021/12/11 04:43:25;;;;;;;33.25;16.42;;;-2.60;99.90;;;;;;4999762;28;20454;-85
2021/12/11 04:45:53;;;;;;;33.88;16.65;;;-2.50;99.90;;;;;;4983301;28;20464;-86
2021/12/11 04:51:29;;;;;;;32.53;15.88;;;-2.60;99.90;;;;;;5003522;28;20050;-86
2021/12/11 04:59:20;;;;;;;32.13;17.17;;;-2.60;99.90;;;;;;4999901;28;20160;-86
2021/12/11 05:07:03;;;;;;;31.73;16.83;;;-2.70;99.90;;;;;;5005602;28;20752;-85
2021/12/11 05:09:42;;;;;;;36.20;18.35;;;-2.70;99.90;;;;;;5002883;28;20046;-86
2021/12/11 05:12:30;;;;;;;36.85;17.52;;;-2.70;99.90;;;;;;4996115;28;20449;-86
2021/12/11 05:14:56;;;;;;;32.95;16.17;;;-2.70;99.90;;;;;;4987282;28;20072;-87
2021/12/11 05:17:23;;;;;;;29.52;15.68;;;-2.90;99.90;;;;;;4996166;28;20046;-86
2021/12/11 05:19:49;;;;;;;34.65;16.90;;;-2.80;99.90;;;;;;4983666;28;20049;-86
2021/12/11 05:22:16;;;;;;;36.63;17.10;;;-2.80;99.90;;;;;;5003559;28;20117;-87
2021/12/11 05:24:48;;;;;;;34.08;15.60;;;-2.80;99.90;;;;;;4994310;28;20442;-87
2021/12/11 05:27:14;;;;;;;38.63;17.52;;;-2.80;99.90;;;;;;4993877;28;20422;-87
2021/12/11 05:29:40;;;;;;;32.00;16.83;;;-2.90;99.90;;;;;;4993124;28;20072;-86
2021/12/11 05:32:12;;;;;;;33.45;16.58;;;-2.80;99.90;;;;;;5008723;28;20044;-85
2021/12/11 05:34:39;;;;;;;31.35;15.85;;;-2.80;99.90;;;;;;5019899;28;20181;-85
2021/12/11 05:37:05;;;;;;;37.22;17.73;;;-2.80;99.90;;;;;;4990599;28;20067;-85
2021/12/11 05:39:31;;;;;;;32.47;16.00;;;-2.80;99.90;;;;;;4992619;28;20132;-85
2021/12/11 05:41:57;;;;;;;32.65;16.52;;;-2.80;99.90;;;;;;4987457;28;20041;-85
2021/12/11 05:44:23;;;;;;;30.83;15.80;;;-2.80;99.90;;;;;;4992794;28;20038;-86
2021/12/11 05:46:51;;;;;;;30.15;15.15;;;-2.70;99.90;;;;;;5007880;28;21615;-85
2021/12/11 05:49:18;;;;;;;30.30;15.43;;;-1.80;99.90;;;;;;4988423;28;20156;-85
2021/12/11 05:51:46;;;;;;;29.40;15.15;;;-2.90;99.90;;;;;;4978514;28;20061;-84
2021/12/11 05:54:21;;;;;;;32.60;15.65;;;-2.90;99.90;;;;;;4982386;28;20033;-85
2021/12/11 05:56:47;;;;;;;32.38;15.63;;;-1.60;99.90;;;;;;4992076;28;20459;-86
2021/12/11 05:59:17;;;;;;;32.25;15.25;;;-3.00;99.90;;;;;;4981128;28;21337;-85
2021/12/11 06:01:53;;;;;;;30.70;15.13;;;-3.00;99.90;;;;;;4994508;28;20053;-85
2021/12/11 06:04:26;;;;;;;30.63;14.98;;;-2.90;99.90;;;;;;4982550;28;20037;-87
2021/12/11 06:06:53;;;;;;;29.08;15.13;;;-3.00;99.90;;;;;;4987587;28;20045;-86
2021/12/11 06:09:21;;;;;;;31.67;15.13;;;-3.00;99.90;;;;;;5006827;28;20095;-85
2021/12/11 06:11:49;;;;;;;30.20;14.48;;;-3.00;99.90;;;;;;4991312;28;20033;-85
2021/12/11 06:14:17;;;;;;;29.33;15.23;;;-3.00;99.90;;;;;;4987886;28;20100;-85
2021/12/11 06:16:47;;;;;;;31.77;15.57;;;-3.00;99.90;;;;;;4993109;28;20052;-85
2021/12/11 06:19:17;;;;;;;21.77;11.15;;;-3.00;99.90;;;;;;4993743;28;20518;-85
2021/12/11 06:21:44;;;;;;;30.90;15.75;;;-3.00;99.90;;;;;;5009459;28;20048;-86
2021/12/11 06:24:09;;;;;;;36.70;16.77;;;-3.00;99.90;;;;;;4979994;28;20560;-86
2021/12/11 06:26:35;;;;;;;31.02;15.50;;;-3.10;99.90;;;;;;4999690;28;20124;-86
2021/12/11 06:29:02;;;;;;;29.30;15.57;;;-3.10;99.90;;;;;;4999044;28;20072;-86
2021/12/11 06:31:27;;;;;;;32.05;15.43;;;-2.50;99.90;;;;;;5012481;28;20048;-86
2021/12/11 06:33:54;;;;;;;31.90;15.57;;;-3.20;99.90;;;;;;4981041;28;20419;-86
2021/12/11 06:36:22;;;;;;;35.47;15.57;;;-3.20;99.90;;;;;;4983494;28;20404;-86
2021/12/11 06:38:53;;;;;;;33.58;16.10;;;-3.20;99.90;;;;;;4990962;28;20151;-86
2021/12/11 06:41:23;;;;;;;35.75;16.63;;;-3.20;99.90;;;;;;4991022;28;20139;-86
2021/12/11 06:43:49;;;;;;;31.52;16.13;;;-3.20;99.90;;;;;;4984608;28;20040;-86
2021/12/11 06:46:15;;;;;;;35.97;17.13;;;-3.20;99.90;;;;;;4986815;28;20151;-86
2021/12/11 06:48:41;;;;;;;33.38;16.83;;;-3.20;99.90;;;;;;4982547;28;20188;-86
2021/12/11 06:51:07;;;;;;;35.58;15.77;;;-3.20;99.90;;;;;;4992219;28;20528;-86
2021/12/11 06:53:43;;;;;;;35.10;16.73;;;-3.20;99.90;;;;;;4990814;28;20407;-86
2021/12/11 06:56:11;;;;;;;35.47;17.75;;;-3.10;99.90;;;;;;4991533;28;20080;-86
2021/12/11 06:58:37;;;;;;;36.80;16.98;;;-3.20;99.90;;;;;;4995261;28;20080;-87
2021/12/11 07:01:05;;;;;;;32.80;16.60;;;-3.10;99.90;;;;;;4982579;28;20080;-86
2021/12/11 07:03:31;;;;;;;36.10;17.33;;;-3.20;99.90;;;;;;5006175;28;20076;-86
2021/12/11 07:05:57;;;;;;;35.33;17.50;;;-3.10;99.90;;;;;;4998255;28;20053;-87
2021/12/11 07:08:23;;;;;;;34.83;18.20;;;-3.10;99.90;;;;;;4985413;28;20045;-87
2021/12/11 07:10:49;;;;;;;33.80;17.90;;;-3.10;99.90;;;;;;4988441;28;20033;-86
2021/12/11 07:13:16;;;;;;;38.55;17.98;;;-3.10;99.90;;;;;;4991781;28;20106;-87
2021/12/11 07:15:42;;;;;;;34.58;17.50;;;-3.10;99.90;;;;;;5001358;28;20041;-86
2021/12/11 07:18:09;;;;;;;39.90;18.67;;;-3.10;99.90;;;;;;4983500;28;20038;-87
2021/12/11 07:20:35;;;;;;;35.17;17.33;;;-3.10;99.90;;;;;;5003570;28;20619;-86
2021/12/11 07:23:01;;;;;;;36.83;18.60;;;-2.60;99.90;;;;;;5010741;28;20052;-86
2021/12/11 07:25:41;;;;;;;40.75;20.52;;;-2.10;99.90;;;;;;4991420;28;20049;-86
2021/12/11 07:28:08;;;;;;;36.40;18.90;;;-3.00;99.90;;;;;;4991596;28;20045;-86
2021/12/11 07:30:35;;;;;;;38.42;19.35;;;-3.00;99.90;;;;;;4994686;28;20049;-86
2021/12/11 07:33:04;;;;;;;39.47;18.80;;;-3.10;99.90;;;;;;4988250;28;20116;-86
2021/12/11 07:35:32;;;;;;;38.53;20.02;;;-3.10;99.90;;;;;;5006736;28;20060;-86
2021/12/11 07:37:58;;;;;;;43.35;20.27;;;-3.00;99.90;;;;;;4981086;28;20057;-86
2021/12/11 07:40:30;;;;;;;40.00;19.15;;;-3.00;99.90;;;;;;4979251;28;20388;-86
2021/12/11 07:42:56;;;;;;;44.33;20.95;;;-3.00;99.90;;;;;;4996785;28;20076;-86
2021/12/11 07:45:24;;;;;;;38.83;19.67;;;-3.00;99.90;;;;;;4980144;28;20073;-86
2021/12/11 07:47:50;;;;;;;38.58;20.08;;;-3.00;99.90;;;;;;4988426;28;20057;-86
2021/12/11 07:50:15;;;;;;;39.80;20.45;;;-3.00;99.90;;;;;;4988845;28;20522;-86
2021/12/11 07:52:41;;;;;;;49.25;24.10;;;-2.90;99.90;;;;;;4984610;28;20199;-86
2021/12/11 07:55:09;;;;;;;46.50;21.50;;;-2.90;99.90;;;;;;4990324;28;20041;-86
2021/12/11 07:57:36;;;;;;;39.72;21.42;;;-2.90;99.90;;;;;;4992109;28;20081;-86
2021/12/11 08:00:04;;;;;;;44.05;21.05;;;-2.90;99.90;;;;;;4987711;28;20049;-87
2021/12/11 08:02:29;;;;;;;44.40;21.17;;;-2.90;99.90;;;;;;4986321;28;20116;-86
2021/12/11 08:04:55;;;;;;;46.60;21.98;;;-2.40;99.90;;;;;;4988995;28;20444;-86
2021/12/11 08:07:20;;;;;;;50.30;20.83;;;-2.80;99.90;;;;;;5002549;28;20120;-87
2021/12/11 08:09:46;;;;;;;41.97;21.02;;;-2.80;99.90;;;;;;4986224;28;20518;-87
2021/12/11 08:12:12;;;;;;;44.58;21.15;;;-2.80;99.90;;;;;;4992087;28;20880;-87
2021/12/11 08:14:38;;;;;;;48.83;24.05;;;-2.80;99.90;;;;;;5001118;28;20053;-86
2021/12/11 08:17:06;;;;;;;42.42;22.08;;;-2.70;99.90;;;;;;4983014;28;20053;-87
2021/12/11 08:19:33;;;;;;;40.58;20.65;;;-2.60;99.90;;;;;;4983080;28;20045;-86
2021/12/11 08:22:05;;;;;;;51.42;24.77;;;-2.60;99.90;;;;;;4984674;28;20042;-86
2021/12/11 08:24:31;;;;;;;50.78;24.02;;;-2.50;99.90;;;;;;4997103;28;20045;-88
2021/12/11 08:27:00;;;;;;;47.20;22.08;;;-2.50;99.90;;;;;;4979953;28;20044;-86
2021/12/11 08:29:26;;;;;;;50.17;23.60;;;-2.50;99.90;;;;;;4981332;28;20038;-86
2021/12/11 08:31:54;;;;;;;54.50;25.30;;;-2.40;99.90;;;;;;4985937;28;20033;-87
2021/12/11 08:34:22;;;;;;;55.83;25.40;;;-2.30;99.90;;;;;;5003113;28;20033;-87
2021/12/11 08:36:49;;;;;;;55.20;26.45;;;-2.30;99.90;;;;;;4983934;28;20053;-88
2021/12/11 08:39:16;;;;;;;65.25;27.13;;;-2.20;99.90;;;;;;5001512;28;20645;-88
2021/12/11 08:41:43;;;;;;;59.00;27.77;;;-2.10;99.90;;;;;;4990098;28;20049;-88
2021/12/11 08:44:13;;;;;;;56.22;27.52;;;-2.10;99.90;;;;;;4990134;28;20041;-88
2021/12/11 08:46:54;;;;;;;55.70;26.85;;;-1.90;99.90;;;;;;4988591;28;20444;-87
2021/12/11 08:49:25;;;;;;;56.58;26.50;;;-1.90;99.90;;;;;;4990909;28;20045;-87
2021/12/11 08:51:56;;;;;;;64.60;27.30;;;-1.80;99.90;;;;;;4989928;28;20630;-87
2021/12/11 08:54:23;;;;;;;;;;;-1.70;99.90;;;;;;4991325;28;20056;-86
2021/12/11 08:56:49;;;;;;;56.22;24.20;;;-1.60;99.90;;;;;;4990451;28;19928;-87
2021/12/11 08:59:18;;;;;;;62.80;27.20;;;-0.80;99.90;;;;;;5006976;28;20045;-87
2021/12/11 09:02:01;;;;;;;67.50;30.48;;;-1.50;99.90;;;;;;4992130;28;20408;-87
2021/12/11 09:05:11;;;;;;;60.97;29.27;;;-1.40;99.90;;;;;;5001846;28;20053;-88
2021/12/11 09:07:45;;;;;;;67.63;29.25;;;-1.30;99.90;;;;;;4989656;28;20061;-87
2021/12/11 09:10:31;;;;;;;69.18;31.08;;;-1.20;99.90;;;;;;5010247;28;20124;-87
2021/12/11 09:13:07;;;;;;;70.00;28.52;;;-1.20;99.90;;;;;;5006917;28;20429;-87
2021/12/11 09:15:40;;;;;;;66.28;30.75;;;-1.10;99.90;;;;;;4996976;28;20084;-88
2021/12/11 09:18:20;;;;;;;61.22;28.45;;;-1.00;99.90;;;;;;4991822;28;20087;-86
2021/12/11 09:20:58;;;;;;;76.72;33.45;;;-0.90;99.90;;;;;;5001543;28;20045;-87
2021/12/11 09:23:52;;;;;;;75.60;31.52;;;-0.90;99.90;;;;;;4983663;28;20046;-88
2021/12/11 09:26:26;;;;;;;65.55;29.83;;;-0.90;99.90;;;;;;4988660;28;20057;-86
2021/12/11 09:29:04;;;;;;;70.65;30.88;;;-0.80;99.90;;;;;;4981311;28;20041;-88
2021/12/11 09:31:45;;;;;;;71.05;32.15;;;-0.80;99.90;;;;;;4986617;28;20048;-88
2021/12/11 09:34:19;;;;;;;67.10;30.58;;;-0.70;99.90;;;;;;5004226;28;20068;-88
2021/12/11 09:36:49;;;;;;;71.65;31.25;;;-0.60;99.90;;;;;;4990247;28;20891;-88
2021/12/11 09:39:25;;;;;;;69.75;32.55;;;-0.60;99.90;;;;;;4986883;28;20180;-88
2021/12/11 09:41:50;;;;;;;77.65;32.20;;;-0.50;99.90;;;;;;4983969;28;20129;-88
2021/12/11 09:44:23;;;;;;;71.40;31.92;;;-0.40;99.90;;;;;;5001519;28;20180;-88
2021/12/11 09:46:55;;;;;;;74.32;33.00;;;-0.30;99.90;;;;;;4987262;28;20132;-87
2021/12/11 09:49:26;;;;;;;74.82;32.22;;;-0.30;99.90;;;;;;4980222;28;20065;-88
2021/12/11 09:52:01;;;;;;;73.55;32.50;;;-0.20;99.90;;;;;;4987666;28;20053;-88
2021/12/11 09:54:31;;;;;;;74.28;35.50;;;-0.10;99.90;;;;;;5007634;28;20568;-88
2021/12/11 09:57:05;;;;;;;74.45;32.53;;;0.00;99.90;;;;;;4982039;28;20116;-88
2021/12/11 09:59:33;;;;;;;70.85;33.42;;;0.00;99.90;;;;;;5002366;28;20052;-88
2021/12/11 10:02:24;;;;;;;66.18;32.22;;;0.10;99.90;;;;;;4994407;28;20060;-88
2021/12/11 10:05:00;;;;;;;66.93;30.77;;;0.10;99.90;;;;;;4989394;28;20043;-88
2021/12/11 10:07:35;;;;;;;65.40;30.75;;;0.20;99.90;;;;;;4985624;28;20052;-90
2021/12/11 10:10:16;;;;;;;71.28;33.10;;;0.20;99.90;;;;;;4987075;28;20037;-89
2021/12/11 10:12:46;;;;;;;58.90;27.10;;;1.50;99.90;;;;;;4988641;28;20045;-89
2021/12/11 10:15:26;;;;;;;67.72;30.70;;;0.30;99.90;;;;;;4997446;28;20045;-88
2021/12/11 10:18:09;;;;;;;73.15;31.75;;;0.40;99.90;;;;;;4987495;28;20052;-88
2021/12/11 10:20:47;;;;;;;77.70;34.90;;;0.50;99.90;;;;;;4982472;28;20199;-89
2021/12/11 10:23:18;;;;;;;74.68;33.33;;;0.50;99.90;;;;;;4985547;28;20068;-90
2021/12/11 10:25:47;;;;;;;72.70;31.85;;;0.60;99.90;;;;;;4988450;28;20072;-90
2021/12/11 10:28:18;;;;;;;65.80;30.35;;;1.80;99.90;;;;;;4992058;28;20120;-89
2021/12/11 10:30:48;;;;;;;60.63;30.37;;;0.90;99.90;;;;;;5002924;28;20053;-89
2021/12/11 10:33:16;;;;;;;66.93;29.80;;;1.80;99.90;;;;;;4989221;28;20037;-89
2021/12/11 10:35:48;;;;;;;62.75;30.30;;;1.40;99.90;;;;;;5001143;28;20042;-88
2021/12/11 10:38:14;;;;;;;64.13;30.80;;;0.70;99.90;;;;;;5002064;28;20084;-88
2021/12/11 10:40:44;;;;;;;60.17;30.77;;;1.90;99.90;;;;;;4988966;28;20132;-88
2021/12/11 10:43:28;;;;;;;57.13;29.73;;;0.80;99.90;;;;;;4985416;28;20056;-88
2021/12/11 10:45:58;;;;;;;66.07;29.15;;;0.90;99.90;;;;;;4990808;28;20577;-88
2021/12/11 10:48:30;;;;;;;61.65;30.92;;;0.90;99.90;;;;;;5006592;28;20045;-89
2021/12/11 10:51:05;;;;;;;60.20;30.15;;;0.90;99.90;;;;;;4989513;28;20044;-90
2021/12/11 10:53:34;;;;;;;59.53;29.48;;;1.10;99.90;;;;;;4965455;28;20199;-91
2021/12/11 10:56:10;;;;;;;59.67;30.95;;;1.20;99.90;;;;;;4985786;28;20694;-91
2021/12/11 10:58:43;;;;;;;56.67;27.75;;;2.10;99.90;;;;;;5002523;28;20094;-91
2021/12/11 11:01:16;;;;;;;53.90;27.13;;;1.90;99.90;;;;;;4978474;28;20053;-92
2021/12/11 11:03:51;;;;;;;45.00;24.92;;;1.40;99.90;;;;;;4994483;28;20050;-92
2021/12/11 11:06:20;;;;;;;55.10;26.38;;;2.80;99.90;;;;;;5001590;28;20076;-93
2021/12/11 11:08:46;;;;;;;46.33;24.45;;;0.90;99.90;;;;;;4996781;28;20073;-92
2021/12/11 11:11:19;;;;;;;40.10;22.67;;;2.50;99.90;;;;;;4985987;28;20041;-93
2021/12/11 11:13:48;;;;;;;45.22;23.83;;;2.50;99.90;;;;;;4999391;28;20050;-92
2021/12/11 11:16:18;;;;;;;44.40;21.48;;;1.40;99.90;;;;;;4998741;28;20052;-93
2021/12/11 11:18:44;;;;;;;44.45;22.52;;;2.70;99.90;;;;;;4988265;28;20111;-92
2021/12/11 11:21:22;;;;;;;36.80;19.83;;;1.60;99.90;;;;;;4996216;28;20045;-92
2021/12/11 11:23:50;;;;;;;40.15;19.70;;;2.80;99.90;;;;;;5004442;28;20061;-93
2021/12/11 11:26:24;;;;;;;39.40;20.63;;;1.20;99.90;;;;;;4994953;28;20053;-92
2021/12/11 11:28:50;;;;;;;37.20;20.55;;;2.60;99.90;;;;;;4998211;28;20044;-94
2021/12/11 11:31:33;;;;;;;38.55;21.30;;;1.70;99.90;;;;;;5000982;28;20132;-93
2021/12/11 11:33:59;;;;;;;40.40;20.30;;;1.70;99.90;;;;;;4986138;28;20622;-93
2021/12/11 11:36:26;;;;;;;38.63;20.65;;;2.30;99.90;;;;;;5018081;28;20049;-92
2021/12/11 11:38:59;;;;;;;38.15;18.85;;;2.50;99.90;;;;;;5009927;28;20073;-92
2021/12/11 11:41:30;;;;;;;41.70;22.73;;;1.10;99.90;;;;;;4986813;28;20046;-92
2021/12/11 11:43:58;;;;;;;42.25;22.45;;;3.10;99.90;;;;;;4985933;28;20042;-92
2021/12/11 11:46:24;;;;;;;41.30;21.75;;;2.80;99.90;;;;;;4998426;28;20449;-91
2021/12/11 11:48:54;;;;;;;41.15;22.80;;;2.60;99.90;;;;;;4994510;28;20560;-92
2021/12/11 11:51:36;;;;;;;43.72;21.73;;;1.40;99.90;;;;;;4984810;28;20048;-91
2021/12/11 11:54:05;;;;;;;38.80;21.08;;;2.90;99.90;;;;;;4990539;28;20054;-92
2021/12/11 11:56:40;;;;;;;35.60;20.38;;;1.90;99.90;;;;;;4997304;28;20513;-92
2021/12/11 11:59:08;;;;;;;39.15;21.38;;;2.50;99.90;;;;;;5000730;28;20041;-92
2021/12/11 12:01:43;;;;;;;38.95;21.02;;;3.00;99.90;;;;;;5005084;28;20533;-93
2021/12/11 12:04:11;;;;;;;43.10;21.73;;;3.10;99.90;;;;;;4989923;28;20042;-92
2021/12/11 12:06:39;;;;;;;38.35;21.10;;;2.00;99.90;;;;;;4992829;28;21585;-92
2021/12/11 12:09:16;;;;;;;35.03;20.30;;;2.10;99.90;;;;;;5006025;28;20053;-93
2021/12/11 12:11:45;;;;;;;38.95;20.83;;;2.30;99.90;;;;;;4992180;28;20087;-92
2021/12/11 12:14:17;;;;;;;35.53;20.05;;;2.40;99.90;;;;;;4995885;28;20037;-92
2021/12/11 12:16:46;;;;;;;36.45;20.38;;;3.00;99.90;;;;;;4992846;28;20501;-92
2021/12/11 12:19:19;;;;;;;36.78;19.65;;;3.20;99.90;;;;;;5012428;28;20037;-92
2021/12/11 12:21:47;;;;;;;34.15;20.17;;;3.20;99.90;;;;;;5011866;28;20080;-92
2021/12/11 12:24:14;;;;;;;36.42;19.83;;;1.60;99.90;;;;;;4994208;28;20120;-92
2021/12/11 12:26:41;;;;;;;38.85;19.95;;;3.20;99.90;;;;;;4994600;28;20561;-92
2021/12/11 12:29:10;;;;;;;39.15;20.02;;;2.20;99.90;;;;;;4998404;28;20041;-92
2021/12/11 12:31:45;;;;;;;36.78;20.77;;;3.30;99.90;;;;;;4996461;28;20049;-93
2021/12/11 12:34:13;;;;;;;38.60;21.63;;;2.00;99.90;;;;;;4992546;28;20046;-92
2021/12/11 12:36:41;;;;;;;36.22;20.25;;;2.90;99.90;;;;;;4994492;28;20042;-93
2021/12/11 12:39:07;;;;;;;36.50;20.88;;;1.70;99.90;;;;;;4995792;28;20072;-93
2021/12/11 12:41:38;;;;;;;38.38;22.38;;;3.40;99.90;;;;;;4990677;28;20045;-93
2021/12/11 12:46:47;;;;;;;39.55;21.90;;;1.70;99.90;;;;;;5015822;28;20049;-93
2021/12/11 12:49:13;;;;;;;40.92;21.15;;;3.20;99.90;;;;;;4997120;28;20483;-93
2021/12/11 12:51:43;;;;;;;39.50;22.13;;;2.30;99.90;;;;;;5001677;28;20049;-91
2021/12/11 12:54:13;;;;;;;35.88;20.80;;;2.50;99.90;;;;;;4999716;28;20708;-92
2021/12/11 12:56:45;;;;;;;36.15;20.00;;;3.50;99.90;;;;;;4994456;28;20045;-93
2021/12/11 12:59:26;;;;;;;36.90;19.77;;;3.50;99.90;;;;;;5015236;28;20069;-95
2021/12/11 13:02:02;;;;;;;45.20;20.38;;;2.70;99.90;;;;;;5003341;28;20473;-94
2021/12/11 13:04:32;;;;;;;40.03;21.48;;;2.60;99.90;;;;;;4997656;28;20049;-92
2021/12/11 13:07:02;;;;;;;41.08;20.80;;;3.90;99.90;;;;;;4991292;28;20076;-93